sensor_id;sensor_type;location;lat;lon;timestamp;pressure;altitude;pressure_sealevel;temperature;humidity
34237;BME280;20501;45.956;13.632;2023-05-07T02:52:44;100583.66;;;14.98;74.86
34237;BME280;20501;45.956;13.632;2023-05-07T02:55:09;100578.06;;;15.16;74.86
34237;BME280;20501;45.956;13.632;2023-05-07T02:57:35;100578.22;;;14.98;74.87
34237;BME280;20501;45.956;13.632;2023-05-07T03:00:27;100569.88;;;14.91;75.27
34237;BME280;20501;45.956;13.632;2023-05-07T03:02:53;100570.91;;;14.90;75.33
34237;BME280;20501;45.956;13.632;2023-05-07T03:05:18;100571.78;;;15.24;73.93
34237;BME280;20501;45.956;13.632;2023-05-07T03:07:44;100577.53;;;15.45;73.32
34237;BME280;20501;45.956;13.632;2023-05-07T03:10:11;100582.63;;;15.57;72.64
34237;BME280;20501;45.956;13.632;2023-05-07T03:12:36;100578.69;;;15.59;72.45
34237;BME280;20501;45.956;13.632;2023-05-07T03:15:02;100589.97;;;15.15;73.72
34237;BME280;20501;45.956;13.632;2023-05-07T03:17:27;100583.66;;;14.98;74.49
34237;BME280;20501;45.956;13.632;2023-05-07T03:19:52;100582.66;;;14.82;75.58
34237;BME280;20501;45.956;13.632;2023-05-07T03:22:18;100584.16;;;14.77;75.69
34237;BME280;20501;45.956;13.632;2023-05-07T03:24:43;100590.47;;;14.94;75.05
34237;BME280;20501;45.956;13.632;2023-05-07T03:27:09;100590.47;;;15.19;74.59
34237;BME280;20501;45.956;13.632;2023-05-07T03:29:34;100589.63;;;15.01;74.55
34237;BME280;20501;45.956;13.632;2023-05-07T03:32:00;100587.94;;;15.00;74.68
34237;BME280;20501;45.956;13.632;2023-05-07T03:34:26;100593.16;;;14.69;76.25
34237;BME280;20501;45.956;13.632;2023-05-07T03:36:51;100588.91;;;14.75;75.95
34237;BME280;20501;45.956;13.632;2023-05-07T03:39:17;100590.81;;;14.82;75.64
34237;BME280;20501;45.956;13.632;2023-05-07T03:41:42;100589.78;;;15.08;74.91
34237;BME280;20501;45.956;13.632;2023-05-07T03:44:07;100591.50;;;15.09;74.51
34237;BME280;20501;45.956;13.632;2023-05-07T03:46:33;100588.41;;;14.71;75.74
34237;BME280;20501;45.956;13.632;2023-05-07T03:48:59;100582.94;;;14.63;76.57
34237;BME280;20501;45.956;13.632;2023-05-07T03:51:25;100585.47;;;14.64;76.35
34237;BME280;20501;45.956;13.632;2023-05-07T03:53:51;100575.66;;;14.72;75.56
34237;BME280;20501;45.956;13.632;2023-05-07T03:56:18;100589.09;;;14.98;75.02
34237;BME280;20501;45.956;13.632;2023-05-07T03:58:44;100589.63;;;15.01;74.05
34237;BME280;20501;45.956;13.632;2023-05-07T04:01:09;100592.19;;;15.03;74.04
34237;BME280;20501;45.956;13.632;2023-05-07T04:03:35;100589.28;;;15.29;73.24
34237;BME280;20501;45.956;13.632;2023-05-07T04:06:00;100582.97;;;15.29;73.36
34237;BME280;20501;45.956;13.632;2023-05-07T04:08:26;100591.16;;;15.12;74.07
34237;BME280;20501;45.956;13.632;2023-05-07T04:10:58;100599.00;;;15.24;73.48
34237;BME280;20501;45.956;13.632;2023-05-07T04:13:24;100600.16;;;15.13;73.42
34237;BME280;20501;45.956;13.632;2023-05-07T04:15:51;100597.78;;;14.93;74.30
34237;BME280;20501;45.956;13.632;2023-05-07T04:18:16;100606.63;;;15.04;74.08
34237;BME280;20501;45.956;13.632;2023-05-07T04:20:42;100606.13;;;15.00;74.38
34237;BME280;20501;45.956;13.632;2023-05-07T04:23:07;100599.66;;;15.01;74.69
34237;BME280;20501;45.956;13.632;2023-05-07T04:25:34;100606.63;;;14.95;75.01
34237;BME280;20501;45.956;13.632;2023-05-07T04:27:59;100608.84;;;14.92;74.93
34237;BME280;20501;45.956;13.632;2023-05-07T04:30:25;100615.28;;;15.07;74.18
34237;BME280;20501;45.956;13.632;2023-05-07T04:32:50;100611.41;;;15.10;73.79
34237;BME280;20501;45.956;13.632;2023-05-07T04:35:16;100606.25;;;14.90;75.01
34237;BME280;20501;45.956;13.632;2023-05-07T04:37:41;100611.88;;;14.80;75.67
34237;BME280;20501;45.956;13.632;2023-05-07T04:40:07;100617.16;;;14.90;75.39
34237;BME280;20501;45.956;13.632;2023-05-07T04:42:33;100611.75;;;14.98;74.40
34237;BME280;20501;45.956;13.632;2023-05-07T04:44:58;100616.69;;;15.28;73.16
34237;BME280;20501;45.956;13.632;2023-05-07T04:47:23;100614.28;;;15.41;72.38
34237;BME280;20501;45.956;13.632;2023-05-07T04:49:49;100615.16;;;15.42;72.29
34237;BME280;20501;45.956;13.632;2023-05-07T04:52:14;100618.88;;;15.57;71.87
34237;BME280;20501;45.956;13.632;2023-05-07T04:54:40;100624.63;;;15.71;71.62
34237;BME280;20501;45.956;13.632;2023-05-07T04:57:06;100623.94;;;15.69;71.64
34237;BME280;20501;45.956;13.632;2023-05-07T04:59:32;100611.19;;;15.77;71.56
34237;BME280;20501;45.956;13.632;2023-05-07T05:01:57;100626.53;;;15.70;71.62
34237;BME280;20501;45.956;13.632;2023-05-07T05:04:23;100627.34;;;15.71;72.04
34237;BME280;20501;45.956;13.632;2023-05-07T05:06:48;100630.09;;;15.71;71.38
34237;BME280;20501;45.956;13.632;2023-05-07T05:09:14;100638.94;;;15.48;72.60
34237;BME280;20501;45.956;13.632;2023-05-07T05:11:40;100645.41;;;15.55;72.41
34237;BME280;20501;45.956;13.632;2023-05-07T05:14:06;100649.16;;;15.29;73.35
34237;BME280;20501;45.956;13.632;2023-05-07T05:16:31;100643.56;;;15.47;73.27
34237;BME280;20501;45.956;13.632;2023-05-07T05:18:57;100651.38;;;15.26;73.93
34237;BME280;20501;45.956;13.632;2023-05-07T05:21:22;100651.72;;;15.23;74.12
34237;BME280;20501;45.956;13.632;2023-05-07T05:23:48;100642.53;;;15.32;73.81
34237;BME280;20501;45.956;13.632;2023-05-07T05:26:13;100655.81;;;15.35;73.58
34237;BME280;20501;45.956;13.632;2023-05-07T05:28:38;100645.44;;;15.39;73.80
34237;BME280;20501;45.956;13.632;2023-05-07T05:31:04;100646.94;;;15.41;73.62
34237;BME280;20501;45.956;13.632;2023-05-07T05:33:30;100643.38;;;15.49;73.63
34237;BME280;20501;45.956;13.632;2023-05-07T05:35:55;100651.69;;;15.64;72.92
34237;BME280;20501;45.956;13.632;2023-05-07T05:38:21;100642.69;;;15.63;72.67
34237;BME280;20501;45.956;13.632;2023-05-07T05:40:46;100644.03;;;15.68;73.37
34237;BME280;20501;45.956;13.632;2023-05-07T05:43:13;100638.91;;;15.81;72.28
34237;BME280;20501;45.956;13.632;2023-05-07T05:45:38;100644.03;;;15.92;71.77
34237;BME280;20501;45.956;13.632;2023-05-07T05:48:03;100635.88;;;15.84;73.07
34237;BME280;20501;45.956;13.632;2023-05-07T05:50:29;100635.69;;;15.86;71.75
34237;BME280;20501;45.956;13.632;2023-05-07T05:52:55;100631.56;;;16.06;70.35
34237;BME280;20501;45.956;13.632;2023-05-07T05:55:20;100632.91;;;16.11;70.64
34237;BME280;20501;45.956;13.632;2023-05-07T05:57:46;100623.88;;;16.18;70.72
34237;BME280;20501;45.956;13.632;2023-05-07T06:00:12;100631.00;;;16.28;70.24
34237;BME280;20501;45.956;13.632;2023-05-07T06:02:37;100639.66;;;16.31;70.27
34237;BME280;20501;45.956;13.632;2023-05-07T06:05:03;100628.84;;;16.46;69.15
34237;BME280;20501;45.956;13.632;2023-05-07T06:07:29;100632.16;;;16.33;71.01
34237;BME280;20501;45.956;13.632;2023-05-07T06:09:54;100624.13;;;16.40;70.48
34237;BME280;20501;45.956;13.632;2023-05-07T06:12:21;100622.56;;;16.37;70.35
34237;BME280;20501;45.956;13.632;2023-05-07T06:14:46;100629.03;;;16.45;71.09
34237;BME280;20501;45.956;13.632;2023-05-07T06:17:11;100634.16;;;16.39;71.07
34237;BME280;20501;45.956;13.632;2023-05-07T06:19:37;100631.91;;;16.43;70.72
34237;BME280;20501;45.956;13.632;2023-05-07T06:22:02;100635.34;;;16.45;70.83
34237;BME280;20501;45.956;13.632;2023-05-07T06:24:28;100639.94;;;16.45;70.44
34237;BME280;20501;45.956;13.632;2023-05-07T06:26:53;100641.47;;;16.47;71.10
34237;BME280;20501;45.956;13.632;2023-05-07T06:29:19;100642.13;;;16.49;70.76
34237;BME280;20501;45.956;13.632;2023-05-07T06:31:44;100644.34;;;16.54;71.00
34237;BME280;20501;45.956;13.632;2023-05-07T06:34:10;100645.53;;;16.51;71.09
34237;BME280;20501;45.956;13.632;2023-05-07T06:36:39;100642.63;;;16.53;71.18
34237;BME280;20501;45.956;13.632;2023-05-07T06:39:05;100639.38;;;16.58;71.53
34237;BME280;20501;45.956;13.632;2023-05-07T06:41:30;100646.81;;;16.64;71.31
34237;BME280;20501;45.956;13.632;2023-05-07T06:43:55;100641.81;;;16.76;70.82
34237;BME280;20501;45.956;13.632;2023-05-07T06:46:21;100641.69;;;16.69;71.24
34237;BME280;20501;45.956;13.632;2023-05-07T06:48:46;100641.47;;;16.79;71.15
34237;BME280;20501;45.956;13.632;2023-05-07T06:51:12;100639.19;;;16.91;70.31
34237;BME280;20501;45.956;13.632;2023-05-07T06:53:37;100643.22;;;17.03;69.98
34237;BME280;20501;45.956;13.632;2023-05-07T06:56:03;100644.97;;;16.96;69.54
34237;BME280;20501;45.956;13.632;2023-05-07T06:58:28;100636.25;;;17.00;70.25
34237;BME280;20501;45.956;13.632;2023-05-07T07:00:53;100644.06;;;17.04;71.19
34237;BME280;20501;45.956;13.632;2023-05-07T07:03:19;100646.13;;;17.01;69.80
34237;BME280;20501;45.956;13.632;2023-05-07T07:05:45;100639.03;;;17.15;69.36
34237;BME280;20501;45.956;13.632;2023-05-07T07:08:10;100634.84;;;17.28;68.54
34237;BME280;20501;45.956;13.632;2023-05-07T07:10:36;100637.75;;;17.26;68.69
34237;BME280;20501;45.956;13.632;2023-05-07T07:13:01;100624.81;;;17.43;68.48
34237;BME280;20501;45.956;13.632;2023-05-07T07:15:26;100623.81;;;17.59;67.18
34237;BME280;20501;45.956;13.632;2023-05-07T07:17:52;100624.75;;;17.67;67.11
34237;BME280;20501;45.956;13.632;2023-05-07T07:20:17;100626.06;;;17.56;66.81
34237;BME280;20501;45.956;13.632;2023-05-07T07:22:43;100629.03;;;17.69;68.17
34237;BME280;20501;45.956;13.632;2023-05-07T07:25:08;100628.84;;;17.71;66.88
34237;BME280;20501;45.956;13.632;2023-05-07T07:27:34;100632.28;;;18.03;66.28
34237;BME280;20501;45.956;13.632;2023-05-07T07:29:59;100626.91;;;18.09;65.90
34237;BME280;20501;45.956;13.632;2023-05-07T07:32:25;100621.78;;;18.36;64.93
34237;BME280;20501;45.956;13.632;2023-05-07T07:34:51;100620.94;;;18.51;64.06
34237;BME280;20501;45.956;13.632;2023-05-07T07:37:16;100625.19;;;18.38;64.00
34237;BME280;20501;45.956;13.632;2023-05-07T07:39:42;100618.69;;;18.24;64.75
34237;BME280;20501;45.956;13.632;2023-05-07T07:42:07;100615.66;;;18.49;64.06
34237;BME280;20501;45.956;13.632;2023-05-07T07:44:32;100622.75;;;18.44;63.34
34237;BME280;20501;45.956;13.632;2023-05-07T07:46:58;100624.56;;;18.73;63.27
34237;BME280;20501;45.956;13.632;2023-05-07T07:49:23;100625.28;;;18.82;63.19
34237;BME280;20501;45.956;13.632;2023-05-07T07:51:49;100626.81;;;19.06;61.82
34237;BME280;20501;45.956;13.632;2023-05-07T07:54:14;100618.69;;;18.76;63.10
34237;BME280;20501;45.956;13.632;2023-05-07T07:56:39;100614.50;;;19.39;61.16
34237;BME280;20501;45.956;13.632;2023-05-07T07:59:05;100616.59;;;18.93;61.73
34237;BME280;20501;45.956;13.632;2023-05-07T08:01:30;100621.47;;;19.41;59.57
34237;BME280;20501;45.956;13.632;2023-05-07T08:03:56;100622.75;;;19.67;59.34
34237;BME280;20501;45.956;13.632;2023-05-07T08:06:24;100625.72;;;19.72;60.59
34237;BME280;20501;45.956;13.632;2023-05-07T08:08:50;100622.09;;;18.78;62.03
34237;BME280;20501;45.956;13.632;2023-05-07T08:11:16;100623.53;;;19.32;61.84
34237;BME280;20501;45.956;13.632;2023-05-07T08:13:41;100625.03;;;19.63;60.20
34237;BME280;20501;45.956;13.632;2023-05-07T08:16:06;100627.91;;;20.12;59.65
34237;BME280;20501;45.956;13.632;2023-05-07T08:18:32;100632.50;;;20.05;59.51
34237;BME280;20501;45.956;13.632;2023-05-07T08:20:57;100622.91;;;18.57;63.31
34237;BME280;20501;45.956;13.632;2023-05-07T08:23:23;100636.53;;;19.52;60.79
34237;BME280;20501;45.956;13.632;2023-05-07T08:25:49;100634.69;;;19.59;60.18
34237;BME280;20501;45.956;13.632;2023-05-07T08:28:14;100633.22;;;20.14;58.21
34237;BME280;20501;45.956;13.632;2023-05-07T08:30:40;100640.06;;;20.38;58.24
34237;BME280;20501;45.956;13.632;2023-05-07T08:33:06;100631.63;;;20.39;56.35
34237;BME280;20501;45.956;13.632;2023-05-07T08:35:31;100638.94;;;19.40;60.17
34237;BME280;20501;45.956;13.632;2023-05-07T08:37:57;100634.63;;;19.53;60.62
34237;BME280;20501;45.956;13.632;2023-05-07T08:40:25;100631.47;;;20.06;57.89
34237;BME280;20501;45.956;13.632;2023-05-07T08:42:52;100634.59;;;20.03;60.76
34237;BME280;20501;45.956;13.632;2023-05-07T08:45:19;100626.16;;;19.98;60.40
34237;BME280;20501;45.956;13.632;2023-05-07T08:47:56;100631.03;;;20.09;58.04
34237;BME280;20501;45.956;13.632;2023-05-07T08:50:23;100629.25;;;20.23;57.45
34237;BME280;20501;45.956;13.632;2023-05-07T08:52:49;100632.84;;;20.30;55.96
34237;BME280;20501;45.956;13.632;2023-05-07T08:55:15;100635.00;;;20.35;56.85
34237;BME280;20501;45.956;13.632;2023-05-07T08:57:40;100624.81;;;19.65;58.79
34237;BME280;20501;45.956;13.632;2023-05-07T09:00:06;100625.31;;;20.94;54.15
34237;BME280;20501;45.956;13.632;2023-05-07T09:02:33;100621.31;;;21.03;53.59
34237;BME280;20501;45.956;13.632;2023-05-07T09:04:58;100628.63;;;20.28;55.55
34237;BME280;20501;45.956;13.632;2023-05-07T09:07:24;100626.81;;;21.17;52.68
34237;BME280;20501;45.956;13.632;2023-05-07T09:09:50;100627.25;;;21.21;52.91
34237;BME280;20501;45.956;13.632;2023-05-07T09:12:17;100628.38;;;20.71;54.76
34237;BME280;20501;45.956;13.632;2023-05-07T09:14:42;100627.41;;;20.37;55.50
34237;BME280;20501;45.956;13.632;2023-05-07T09:17:08;100627.47;;;21.19;54.39
34237;BME280;20501;45.956;13.632;2023-05-07T09:19:33;100626.16;;;21.08;53.69
34237;BME280;20501;45.956;13.632;2023-05-07T09:22:00;100634.44;;;21.22;49.99
34237;BME280;20501;45.956;13.632;2023-05-07T09:24:26;100629.28;;;20.36;52.14
34237;BME280;20501;45.956;13.632;2023-05-07T09:26:51;100632.31;;;21.17;51.42
34237;BME280;20501;45.956;13.632;2023-05-07T09:29:18;100626.38;;;21.00;52.07
34237;BME280;20501;45.956;13.632;2023-05-07T09:31:43;100629.34;;;21.18;52.38
34237;BME280;20501;45.956;13.632;2023-05-07T09:34:09;100621.34;;;20.48;52.72
34237;BME280;20501;45.956;13.632;2023-05-07T09:36:34;100611.00;;;21.26;50.62
34237;BME280;20501;45.956;13.632;2023-05-07T09:39:00;100614.16;;;21.36;49.68
34237;BME280;20501;45.956;13.632;2023-05-07T09:41:26;100611.50;;;20.67;52.55
34237;BME280;20501;45.956;13.632;2023-05-07T09:43:54;100618.47;;;20.21;53.65
34237;BME280;20501;45.956;13.632;2023-05-07T09:46:25;100613.97;;;21.51;51.66
34237;BME280;20501;45.956;13.632;2023-05-07T09:48:52;100623.66;;;22.01;50.21
34237;BME280;20501;45.956;13.632;2023-05-07T09:51:43;100620.97;;;21.67;52.11
34237;BME280;20501;45.956;13.632;2023-05-07T09:54:11;100619.88;;;21.48;53.63
34237;BME280;20501;45.956;13.632;2023-05-07T09:56:37;100620.03;;;20.93;54.25
34237;BME280;20501;45.956;13.632;2023-05-07T09:59:06;100626.41;;;21.20;54.30
34237;BME280;20501;45.956;13.632;2023-05-07T10:01:32;100618.53;;;20.97;54.41
34237;BME280;20501;45.956;13.632;2023-05-07T10:04:02;100622.38;;;21.09;53.95
34237;BME280;20501;45.956;13.632;2023-05-07T10:06:30;100623.25;;;21.57;52.30
34237;BME280;20501;45.956;13.632;2023-05-07T10:08:55;100609.50;;;21.57;52.85
34237;BME280;20501;45.956;13.632;2023-05-07T10:11:22;100616.03;;;21.96;51.91
34237;BME280;20501;45.956;13.632;2023-05-07T10:13:47;100617.53;;;21.58;51.91
34237;BME280;20501;45.956;13.632;2023-05-07T10:16:14;100620.94;;;21.74;50.96
34237;BME280;20501;45.956;13.632;2023-05-07T10:18:43;100621.78;;;21.74;50.10
34237;BME280;20501;45.956;13.632;2023-05-07T10:21:16;100621.34;;;21.44;52.52
34237;BME280;20501;45.956;13.632;2023-05-07T10:23:45;100617.28;;;21.06;52.81
34237;BME280;20501;45.956;13.632;2023-05-07T10:26:12;100614.19;;;21.76;50.08
34237;BME280;20501;45.956;13.632;2023-05-07T10:28:38;100609.97;;;21.74;48.40
34237;BME280;20501;45.956;13.632;2023-05-07T10:31:18;100615.88;;;21.77;50.25
34237;BME280;20501;45.956;13.632;2023-05-07T10:33:50;100610.16;;;21.65;49.39
34237;BME280;20501;45.956;13.632;2023-05-07T10:36:17;100612.47;;;21.55;48.94
34237;BME280;20501;45.956;13.632;2023-05-07T10:38:43;100604.41;;;21.00;49.47
34237;BME280;20501;45.956;13.632;2023-05-07T10:41:09;100606.06;;;20.81;48.57
34237;BME280;20501;45.956;13.632;2023-05-07T10:43:42;100600.03;;;21.32;46.38
34237;BME280;20501;45.956;13.632;2023-05-07T10:51:27;100606.84;;;23.20;38.48
34237;BME280;20501;45.956;13.632;2023-05-07T10:56:37;100598.56;;;22.42;42.12
34237;BME280;20501;45.956;13.632;2023-05-07T11:02:02;100594.69;;;22.57;42.30
34237;BME280;20501;45.956;13.632;2023-05-07T11:04:29;100600.03;;;22.38;41.84
34237;BME280;20501;45.956;13.632;2023-05-07T11:15:05;100591.53;;;22.53;40.80
34237;BME280;20501;45.956;13.632;2023-05-07T11:17:32;100588.47;;;22.68;39.16
34237;BME280;20501;45.956;13.632;2023-05-07T11:20:00;100593.41;;;22.98;38.87
34237;BME280;20501;45.956;13.632;2023-05-07T11:25:07;100593.88;;;22.88;37.30
34237;BME280;20501;45.956;13.632;2023-05-07T11:27:33;100592.22;;;22.81;38.22
34237;BME280;20501;45.956;13.632;2023-05-07T11:29:59;100601.84;;;22.13;39.75
34237;BME280;20501;45.956;13.632;2023-05-07T11:32:26;100597.59;;;22.69;40.31
34237;BME280;20501;45.956;13.632;2023-05-07T11:34:52;100596.22;;;22.39;38.68
34237;BME280;20501;45.956;13.632;2023-05-07T11:37:19;100601.47;;;22.54;36.62
34237;BME280;20501;45.956;13.632;2023-05-07T11:39:45;100602.13;;;23.27;33.05
34237;BME280;20501;45.956;13.632;2023-05-07T11:42:45;100600.28;;;23.46;34.59
34237;BME280;20501;45.956;13.632;2023-05-07T11:45:10;100589.78;;;22.66;37.64
34237;BME280;20501;45.956;13.632;2023-05-07T11:47:36;100596.13;;;23.37;35.90
34237;BME280;20501;45.956;13.632;2023-05-07T11:50:06;100585.81;;;23.26;35.37
34237;BME280;20501;45.956;13.632;2023-05-07T11:52:33;100586.19;;;22.97;34.02
34237;BME280;20501;45.956;13.632;2023-05-07T11:54:59;100603.75;;;23.03;33.93
34237;BME280;20501;45.956;13.632;2023-05-07T11:57:26;100594.97;;;23.19;33.79
34237;BME280;20501;45.956;13.632;2023-05-07T12:02:20;100597.84;;;23.31;30.89
34237;BME280;20501;45.956;13.632;2023-05-07T12:04:45;100585.84;;;22.87;32.90
34237;BME280;20501;45.956;13.632;2023-05-07T12:07:14;100593.41;;;23.30;31.20
34237;BME280;20501;45.956;13.632;2023-05-07T12:09:41;100589.84;;;23.23;29.76
34237;BME280;20501;45.956;13.632;2023-05-07T12:12:07;100597.22;;;23.29;30.52
34237;BME280;20501;45.956;13.632;2023-05-07T12:14:34;100594.75;;;22.89;33.22
34237;BME280;20501;45.956;13.632;2023-05-07T12:17:03;100593.66;;;23.22;30.33
34237;BME280;20501;45.956;13.632;2023-05-07T12:19:30;100585.34;;;23.29;30.38
34237;BME280;20501;45.956;13.632;2023-05-07T12:21:56;100596.22;;;23.24;32.42
34237;BME280;20501;45.956;13.632;2023-05-07T12:24:21;100594.38;;;23.43;33.72
34237;BME280;20501;45.956;13.632;2023-05-07T12:26:48;100595.44;;;23.42;32.02
34237;BME280;20501;45.956;13.632;2023-05-07T12:29:13;100600.72;;;23.43;30.82
34237;BME280;20501;45.956;13.632;2023-05-07T12:31:43;100604.03;;;23.27;30.82
34237;BME280;20501;45.956;13.632;2023-05-07T12:34:11;100593.56;;;23.36;31.51
34237;BME280;20501;45.956;13.632;2023-05-07T12:36:37;100603.88;;;22.83;32.80
34237;BME280;20501;45.956;13.632;2023-05-07T12:39:05;100604.75;;;22.18;33.03
34237;BME280;20501;45.956;13.632;2023-05-07T12:41:36;100605.53;;;22.38;33.40
34237;BME280;20501;45.956;13.632;2023-05-07T12:44:04;100599.19;;;22.51;32.09
34237;BME280;20501;45.956;13.632;2023-05-07T12:46:30;100605.53;;;22.38;35.71
34237;BME280;20501;45.956;13.632;2023-05-07T12:48:56;100599.25;;;22.18;38.93
34237;BME280;20501;45.956;13.632;2023-05-07T12:51:22;100591.16;;;22.36;37.00
34237;BME280;20501;45.956;13.632;2023-05-07T12:53:47;100589.13;;;22.64;36.54
34237;BME280;20501;45.956;13.632;2023-05-07T12:56:15;100591.59;;;22.79;36.37
34237;BME280;20501;45.956;13.632;2023-05-07T12:58:41;100591.59;;;22.79;34.95
34237;BME280;20501;45.956;13.632;2023-05-07T13:01:07;100585.72;;;23.00;33.36
34237;BME280;20501;45.956;13.632;2023-05-07T13:03:36;100591.91;;;22.64;34.55
34237;BME280;20501;45.956;13.632;2023-05-07T13:10:54;100587.84;;;23.05;36.87
34237;BME280;20501;45.956;13.632;2023-05-07T13:13:20;100575.38;;;22.64;37.70
34237;BME280;20501;45.956;13.632;2023-05-07T13:15:46;100580.88;;;22.64;38.13
34237;BME280;20501;45.956;13.632;2023-05-07T13:18:12;100579.06;;;21.92;41.22
34237;BME280;20501;45.956;13.632;2023-05-07T13:20:37;100580.72;;;21.93;40.02
34237;BME280;20501;45.956;13.632;2023-05-07T13:23:03;100580.53;;;21.88;41.60
34237;BME280;20501;45.956;13.632;2023-05-07T13:25:30;100577.72;;;22.08;41.37
34237;BME280;20501;45.956;13.632;2023-05-07T13:27:56;100574.22;;;21.80;42.55
34237;BME280;20501;45.956;13.632;2023-05-07T13:30:22;100578.22;;;21.71;43.35
34237;BME280;20501;45.956;13.632;2023-05-07T13:32:47;100577.25;;;22.18;42.59
34237;BME280;20501;45.956;13.632;2023-05-07T13:35:14;100576.72;;;21.95;43.42
34237;BME280;20501;45.956;13.632;2023-05-07T13:37:39;100575.81;;;22.08;43.13
34237;BME280;20501;45.956;13.632;2023-05-07T13:40:05;100576.56;;;22.36;41.66
34237;BME280;20501;45.956;13.632;2023-05-07T13:42:31;100575.66;;;21.97;43.25
34237;BME280;20501;45.956;13.632;2023-05-07T13:44:56;100582.00;;;21.84;43.66
34237;BME280;20501;45.956;13.632;2023-05-07T13:47:22;100583.44;;;22.06;43.43
34237;BME280;20501;45.956;13.632;2023-05-07T13:49:48;100589.41;;;21.02;47.68
34237;BME280;20501;45.956;13.632;2023-05-07T13:52:16;100583.31;;;21.34;48.95
34237;BME280;20501;45.956;13.632;2023-05-07T13:54:41;100590.69;;;21.54;49.12
34237;BME280;20501;45.956;13.632;2023-05-07T13:57:07;100590.91;;;21.72;50.47
34237;BME280;20501;45.956;13.632;2023-05-07T13:59:33;100595.56;;;21.52;52.67
34237;BME280;20501;45.956;13.632;2023-05-07T14:01:59;100593.06;;;21.70;52.36
34237;BME280;20501;45.956;13.632;2023-05-07T14:04:24;100598.94;;;21.13;54.29
34237;BME280;20501;45.956;13.632;2023-05-07T14:06:49;100590.47;;;20.88;55.82
34237;BME280;20501;45.956;13.632;2023-05-07T14:09:15;100587.06;;;20.86;55.80
34237;BME280;20501;45.956;13.632;2023-05-07T14:11:41;100586.69;;;21.29;56.16
34237;BME280;20501;45.956;13.632;2023-05-07T14:14:06;100596.19;;;21.54;55.24
34237;BME280;20501;45.956;13.632;2023-05-07T14:16:32;100594.28;;;21.21;54.63
34237;BME280;20501;45.956;13.632;2023-05-07T14:18:57;100596.19;;;21.13;56.50
34237;BME280;20501;45.956;13.632;2023-05-07T14:21:22;100594.31;;;21.41;56.20
34237;BME280;20501;45.956;13.632;2023-05-07T14:23:48;100592.88;;;20.63;57.22
34237;BME280;20501;45.956;13.632;2023-05-07T14:26:13;100589.22;;;21.51;55.39
34237;BME280;20501;45.956;13.632;2023-05-07T14:28:39;100593.44;;;21.00;54.70
34237;BME280;20501;45.956;13.632;2023-05-07T14:31:05;100603.59;;;21.73;54.91
34237;BME280;20501;45.956;13.632;2023-05-07T14:33:31;100595.13;;;21.01;55.80
34237;BME280;20501;45.956;13.632;2023-05-07T14:35:57;100595.72;;;20.83;55.13
34237;BME280;20501;45.956;13.632;2023-05-07T14:38:22;100604.22;;;21.28;52.90
34237;BME280;20501;45.956;13.632;2023-05-07T14:40:48;100603.13;;;20.89;53.60
34237;BME280;20501;45.956;13.632;2023-05-07T14:43:13;100603.19;;;21.76;42.00
34237;BME280;20501;45.956;13.632;2023-05-07T14:45:38;100600.66;;;21.68;47.11
34237;BME280;20501;45.956;13.632;2023-05-07T14:48:04;100608.03;;;21.81;46.74
34237;BME280;20501;45.956;13.632;2023-05-07T14:50:30;100601.44;;;22.02;46.43
34237;BME280;20501;45.956;13.632;2023-05-07T14:52:55;100605.28;;;21.74;46.46
34237;BME280;20501;45.956;13.632;2023-05-07T14:55:21;100599.13;;;21.86;44.29
34237;BME280;20501;45.956;13.632;2023-05-07T14:57:46;100601.47;;;21.55;45.23
34237;BME280;20501;45.956;13.632;2023-05-07T15:00:12;100608.16;;;22.20;43.39
34237;BME280;20501;45.956;13.632;2023-05-07T15:02:38;100608.44;;;21.98;44.93
34237;BME280;20501;45.956;13.632;2023-05-07T15:05:03;100602.13;;;21.77;44.29
34237;BME280;20501;45.956;13.632;2023-05-07T15:07:30;100604.22;;;21.89;45.10
34237;BME280;20501;45.956;13.632;2023-05-07T15:09:57;100601.72;;;21.60;46.91
34237;BME280;20501;45.956;13.632;2023-05-07T15:12:23;100600.84;;;21.67;48.24
34237;BME280;20501;45.956;13.632;2023-05-07T15:14:48;100601.72;;;21.67;47.40
34237;BME280;20501;45.956;13.632;2023-05-07T15:17:13;100606.13;;;21.48;49.69
34237;BME280;20501;45.956;13.632;2023-05-07T15:19:40;100601.25;;;21.90;48.75
34237;BME280;20501;45.956;13.632;2023-05-07T15:22:05;100602.06;;;21.98;49.22
34237;BME280;20501;45.956;13.632;2023-05-07T15:24:31;100599.97;;;21.93;47.44
34237;BME280;20501;45.956;13.632;2023-05-07T15:26:57;100600.84;;;21.80;48.33
34237;BME280;20501;45.956;13.632;2023-05-07T15:29:26;100609.50;;;21.84;49.35
34237;BME280;20501;45.956;13.632;2023-05-07T15:31:51;100606.53;;;21.45;50.42
34237;BME280;20501;45.956;13.632;2023-05-07T15:34:17;100608.44;;;21.31;50.02
34237;BME280;20501;45.956;13.632;2023-05-07T15:36:43;100612.47;;;21.55;49.48
34237;BME280;20501;45.956;13.632;2023-05-07T15:39:08;100602.75;;;21.53;49.02
34237;BME280;20501;45.956;13.632;2023-05-07T15:41:35;100603.16;;;21.23;51.15
34237;BME280;20501;45.956;13.632;2023-05-07T15:44:02;100602.13;;;21.37;51.08
34237;BME280;20501;45.956;13.632;2023-05-07T15:46:27;100614.38;;;21.34;51.47
34237;BME280;20501;45.956;13.632;2023-05-07T15:48:53;100605.69;;;21.24;51.99
34237;BME280;20501;45.956;13.632;2023-05-07T15:51:18;100613.94;;;21.24;52.82
34237;BME280;20501;45.956;13.632;2023-05-07T15:53:45;100615.44;;;21.27;52.31
34237;BME280;20501;45.956;13.632;2023-05-07T15:56:11;100622.59;;;21.08;53.67